Star Endeavour I — 9V9397 — position and weather

sailwx.info

Track history (hours):
 
Tides and Currents Weather Stations Pressure Air Temp Water Temp Dewpoint Dewpoint Depression Visibility Wind Speed Wind Dir Waves Ship Positions

Star Endeavour I

Last reported at 2017-Nov-09 08:14 UTC. Time now 2017-Nov-25 00:25 UTC.
Position N 32°22' W 117°41'.
Warning: this ship's position is 15 days out of date.

Length 163 m; draft 7.5 m.

Type: Cargo ship. MMSI: 566060000.

Date/timePositionNaut miles runAvg speedWind from/ knotsBaromVisibWave heightAir tempDewpointWater temp
2017-Nov-09 08:14N 32°22' W 117°41'520.6
2017-Nov-09 08:00N 32°26' W 117°43'1020.5
2017-Nov-09 07:30N 32°36' W 117°47'1020.7
2017-Nov-09 07:00N 32°46' W 117°52'1020.8
2017-Nov-09 06:30N 32°55' W 117°56'1121.2
2017-Nov-09 06:00N 33°05' W 118°00'1121.3
2017-Nov-09 05:30N 33°15' W 118°04'1420.8
2017-Nov-09 04:50N 33°28' W 118°10'815.6
2017-Nov-09 04:20N 33°36' W 118°13'9 2.1
2017-Nov-09 00:19N 33°44' W 118°13'0 0.0
2017-Nov-08 23:49N 33°44' W 118°13'0 0.0
2017-Nov-08 23:25N 33°44' W 118°13'0 0.0
2017-Nov-08 22:55N 33°44' W 118°13'5 1.0
2017-Nov-08 17:55N 33°40' W 118°12'611.4
2017-Nov-08 17:24N 33°36' W 118°17'512.8
2017-Nov-08 16:59N 33°37' W 118°23'917.7
2017-Nov-08 16:30N 33°42' W 118°32'917.4
2017-Nov-08 16:00N 33°46' W 118°41'917.7
2017-Nov-08 15:29N 33°50' W 118°51'918.4
2017-Nov-08 15:00N 33°55' W 118°60'918.7
2017-Nov-08 14:30N 33°59' W 119°10'815.3
2017-Nov-08 14:00N 34°06' W 119°15'3 6.6
2017-Nov-08 13:29N 34°09' W 119°12'0 0.0
2017-Nov-08 09:19N 34°09' W 119°12'0 0.0
2017-Nov-08 08:55N 34°09' W 119°12'0 0.0
2017-Nov-08 08:25N 34°09' W 119°12'0 0.0
2017-Nov-08 07:07N 34°09' W 119°12'0 0.0
2017-Nov-08 06:40N 34°09' W 119°12'0 0.0
2017-Nov-08 06:19N 34°09' W 119°12'0 0.0
2017-Nov-08 04:49N 34°09' W 119°12'0 0.1
2017-Nov-08 04:19N 34°09' W 119°12'0 0.0
2017-Nov-08 03:49N 34°09' W 119°12'0 0.0
2017-Nov-08 03:16N 34°09' W 119°12'0 0.0
2017-Nov-08 02:58N 34°09' W 119°12'0 0.0
2017-Nov-08 02:19N 34°09' W 119°12'0 0.0
2017-Nov-08 01:55N 34°09' W 119°12'0 0.0
2017-Nov-08 01:19N 34°09' W 119°12'0 0.0
2017-Nov-08 00:55N 34°09' W 119°12'0 0.0
2017-Nov-08 00:25N 34°09' W 119°12'0 0.0
2017-Nov-07 23:55N 34°09' W 119°12'0 0.0
2017-Nov-07 22:04N 34°09' W 119°12'0 0.0
2017-Nov-07 21:52N 34°09' W 119°12'0 0.0
2017-Nov-07 21:19N 34°09' W 119°12'0 0.0
2017-Nov-07 17:07N 34°09' W 119°12'0 0.0
2017-Nov-07 16:37N 34°09' W 119°12'0 0.0
2017-Nov-07 16:28N 34°09' W 119°12'0 0.0
2017-Nov-07 15:13N 34°09' W 119°12'0 0.0
2017-Nov-07 14:49N 34°09' W 119°12'0 0.0
2017-Nov-07 14:25N 34°09' W 119°12'0 0.0
2017-Nov-07 13:55N 34°09' W 119°12'0 0.0
2017-Nov-07 13:25N 34°09' W 119°12'0 0.0
2017-Nov-07 12:55N 34°09' W 119°12'0 0.0
2017-Nov-07 12:25N 34°09' W 119°12'0 0.0
2017-Nov-07 11:55N 34°09' W 119°12'0 0.0
2017-Nov-07 11:19N 34°09' W 119°12'0 0.0
2017-Nov-07 10:55N 34°09' W 119°12'0 0.0
2017-Nov-07 10:25N 34°09' W 119°12'0 0.0
2017-Nov-07 09:55N 34°09' W 119°12'0 0.0
2017-Nov-07 09:25N 34°09' W 119°12'0 0.0
2017-Nov-07 08:58N 34°09' W 119°12'0 0.0
2017-Nov-07 08:25N 34°09' W 119°12'0 0.0
2017-Nov-07 07:55N 34°09' W 119°12'0 0.0
2017-Nov-07 07:25N 34°09' W 119°12'0 0.0
2017-Nov-07 06:55N 34°09' W 119°12'0 0.0
2017-Nov-07 06:25N 34°09' W 119°12'0 0.0
2017-Nov-07 05:55N 34°09' W 119°12'0 0.0
2017-Nov-07 05:28N 34°09' W 119°12'0 0.0
2017-Nov-07 04:58N 34°09' W 119°12'0 0.0
2017-Nov-07 04:25N 34°09' W 119°12'0 0.0
2017-Nov-07 03:55N 34°09' W 119°12'0 0.0
2017-Nov-07 02:07N 34°09' W 119°12'0 0.0
2017-Nov-07 01:01N 34°09' W 119°12'0 0.0
2017-Nov-07 00:46N 34°09' W 119°12'0 0.0
2017-Nov-07 00:25N 34°09' W 119°12'0 0.0
2017-Nov-06 23:49N 34°09' W 119°12'0 0.0
2017-Nov-06 23:22N 34°09' W 119°12'0 0.0
2017-Nov-06 02:25N 34°09' W 119°12'0 0.0
2017-Nov-06 00:05N 34°09' W 119°12'0 1.9
2017-Nov-05 23:59N 34°09' W 119°13'3 7.2
2017-Nov-05 23:30N 34°06' W 119°15'5 8.7
2017-Nov-05 22:57N 34°02' W 119°17'511.7
2017-Nov-05 22:30N 33°58' W 119°12'713.9
2017-Nov-05 22:00N 33°53' W 119°06'816.1
2017-Nov-05 21:29N 33°46' W 119°01'816.4
2017-Nov-05 21:00N 33°40' W 118°56'816.1
2017-Nov-05 20:30N 33°33' W 118°51'816.4
2017-Nov-05 20:00N 33°26' W 118°46'816.0
2017-Nov-05 19:30N 33°19' W 118°40'1016.2
2017-Nov-05 18:52N 33°11' W 118°33'716.4
2017-Nov-05 18:28N 33°07' W 118°27'1116.2
2017-Nov-05 17:48N 33°01' W 118°16'516.1
2017-Nov-05 17:30N 32°57' W 118°12'916.4
2017-Nov-05 16:59N 32°51' W 118°06'1516.5
2017-Nov-05 16:06N 32°40' W 117°54'216.3
2017-Nov-05 16:00N 32°39' W 117°53'1516.9
2017-Nov-05 15:07N 32°25' W 117°45'  
Track history (hours):
 
Tides and Currents Weather Stations Pressure Air Temp Water Temp Dewpoint Dewpoint Depression Visibility Wind Speed Wind Dir Waves Ship Positions

Star Endeavour I

Last reported at 2017-Nov-09 08:14 UTC. Time now 2017-Nov-25 00:25 UTC.
Position N 32°22' W 117°41'.
Warning: this ship's position is 15 days out of date.

Length 163 m; draft 7.5 m.

Type: Cargo ship. MMSI: 566060000.

Date/timePositionNaut miles runAvg speedWind from/ knotsBaromVisibWave heightAir tempDewpointWater temp
2017-Nov-09 08:14N 32°22' W 117°41'520.6
2017-Nov-09 08:00N 32°26' W 117°43'1020.5
2017-Nov-09 07:30N 32°36' W 117°47'1020.7
2017-Nov-09 07:00N 32°46' W 117°52'1020.8
2017-Nov-09 06:30N 32°55' W 117°56'1121.2
2017-Nov-09 06:00N 33°05' W 118°00'1121.3
2017-Nov-09 05:30N 33°15' W 118°04'1420.8
2017-Nov-09 04:50N 33°28' W 118°10'815.6
2017-Nov-09 04:20N 33°36' W 118°13'9 2.1
2017-Nov-09 00:19N 33°44' W 118°13'0 0.0
2017-Nov-08 23:49N 33°44' W 118°13'0 0.0
2017-Nov-08 23:25N 33°44' W 118°13'0 0.0
2017-Nov-08 22:55N 33°44' W 118°13'5 1.0
2017-Nov-08 17:55N 33°40' W 118°12'611.4
2017-Nov-08 17:24N 33°36' W 118°17'512.8
2017-Nov-08 16:59N 33°37' W 118°23'917.7
2017-Nov-08 16:30N 33°42' W 118°32'917.4
2017-Nov-08 16:00N 33°46' W 118°41'917.7
2017-Nov-08 15:29N 33°50' W 118°51'918.4
2017-Nov-08 15:00N 33°55' W 118°60'918.7
2017-Nov-08 14:30N 33°59' W 119°10'815.3
2017-Nov-08 14:00N 34°06' W 119°15'3 6.6
2017-Nov-08 13:29N 34°09' W 119°12'0 0.0
2017-Nov-08 09:19N 34°09' W 119°12'0 0.0
2017-Nov-08 08:55N 34°09' W 119°12'0 0.0
2017-Nov-08 08:25N 34°09' W 119°12'0 0.0
2017-Nov-08 07:07N 34°09' W 119°12'0 0.0
2017-Nov-08 06:40N 34°09' W 119°12'0 0.0
2017-Nov-08 06:19N 34°09' W 119°12'0 0.0
2017-Nov-08 04:49N 34°09' W 119°12'0 0.1
2017-Nov-08 04:19N 34°09' W 119°12'0 0.0
2017-Nov-08 03:49N 34°09' W 119°12'0 0.0
2017-Nov-08 03:16N 34°09' W 119°12'0 0.0
2017-Nov-08 02:58N 34°09' W 119°12'0 0.0
2017-Nov-08 02:19N 34°09' W 119°12'0 0.0
2017-Nov-08 01:55N 34°09' W 119°12'0 0.0
2017-Nov-08 01:19N 34°09' W 119°12'0 0.0
2017-Nov-08 00:55N 34°09' W 119°12'0 0.0
2017-Nov-08 00:25N 34°09' W 119°12'0 0.0
2017-Nov-07 23:55N 34°09' W 119°12'0 0.0
2017-Nov-07 22:04N 34°09' W 119°12'0 0.0
2017-Nov-07 21:52N 34°09' W 119°12'0 0.0
2017-Nov-07 21:19N 34°09' W 119°12'0 0.0
2017-Nov-07 17:07N 34°09' W 119°12'0 0.0
2017-Nov-07 16:37N 34°09' W 119°12'0 0.0
2017-Nov-07 16:28N 34°09' W 119°12'0 0.0
2017-Nov-07 15:13N 34°09' W 119°12'0 0.0
2017-Nov-07 14:49N 34°09' W 119°12'0 0.0
2017-Nov-07 14:25N 34°09' W 119°12'0 0.0
2017-Nov-07 13:55N 34°09' W 119°12'0 0.0
2017-Nov-07 13:25N 34°09' W 119°12'0 0.0
2017-Nov-07 12:55N 34°09' W 119°12'0 0.0
2017-Nov-07 12:25N 34°09' W 119°12'0 0.0
2017-Nov-07 11:55N 34°09' W 119°12'0 0.0
2017-Nov-07 11:19N 34°09' W 119°12'0 0.0
2017-Nov-07 10:55N 34°09' W 119°12'0 0.0
2017-Nov-07 10:25N 34°09' W 119°12'0 0.0
2017-Nov-07 09:55N 34°09' W 119°12'0 0.0
2017-Nov-07 09:25N 34°09' W 119°12'0 0.0
2017-Nov-07 08:58N 34°09' W 119°12'0 0.0
2017-Nov-07 08:25N 34°09' W 119°12'0 0.0
2017-Nov-07 07:55N 34°09' W 119°12'0 0.0
2017-Nov-07 07:25N 34°09' W 119°12'0 0.0
2017-Nov-07 06:55N 34°09' W 119°12'0 0.0
2017-Nov-07 06:25N 34°09' W 119°12'0 0.0
2017-Nov-07 05:55N 34°09' W 119°12'0 0.0
2017-Nov-07 05:28N 34°09' W 119°12'0 0.0
2017-Nov-07 04:58N 34°09' W 119°12'0 0.0
2017-Nov-07 04:25N 34°09' W 119°12'0 0.0
2017-Nov-07 03:55N 34°09' W 119°12'0 0.0
2017-Nov-07 02:07N 34°09' W 119°12'0 0.0
2017-Nov-07 01:01N 34°09' W 119°12'0 0.0
2017-Nov-07 00:46N 34°09' W 119°12'0 0.0
2017-Nov-07 00:25N 34°09' W 119°12'0 0.0
2017-Nov-06 23:49N 34°09' W 119°12'0 0.0
2017-Nov-06 23:22N 34°09' W 119°12'0 0.0
2017-Nov-06 02:25N 34°09' W 119°12'0 0.0
2017-Nov-06 00:05N 34°09' W 119°12'0 1.9
2017-Nov-05 23:59N 34°09' W 119°13'3 7.2
2017-Nov-05 23:30N 34°06' W 119°15'5 8.7
2017-Nov-05 22:57N 34°02' W 119°17'511.7
2017-Nov-05 22:30N 33°58' W 119°12'713.9
2017-Nov-05 22:00N 33°53' W 119°06'816.1
2017-Nov-05 21:29N 33°46' W 119°01'816.4
2017-Nov-05 21:00N 33°40' W 118°56'816.1
2017-Nov-05 20:30N 33°33' W 118°51'816.4
2017-Nov-05 20:00N 33°26' W 118°46'816.0
2017-Nov-05 19:30N 33°19' W 118°40'1016.2
2017-Nov-05 18:52N 33°11' W 118°33'716.4
2017-Nov-05 18:28N 33°07' W 118°27'1116.2
2017-Nov-05 17:48N 33°01' W 118°16'516.1
2017-Nov-05 17:30N 32°57' W 118°12'916.4
2017-Nov-05 16:59N 32°51' W 118°06'1516.5
2017-Nov-05 16:06N 32°40' W 117°54'216.3
2017-Nov-05 16:00N 32°39' W 117°53'1516.9
2017-Nov-05 15:07N 32°25' W 117°45'  

Dump ship's entire track history